Terminal Aerodrome Forecast
Issued by NWS Omaha/Valley, NE

Home | Current Version | Previous Version | Graphics & Text | Print | Product List | Glossary On
Versions: 1 2 3 4 5 6 7 8 9 10 11 12 13 14 15 16 17 18 19 20 21 22 23 24 25 26 27 28 29 30 31 32 33 34 35 36 37 38 39 40 41 42 43 44 45 46
000
FTUS43 KOAX 240409 AAB
TAFOFK
TAF AMD
KOFK 240409Z 2404/2424 11010KT 4SM BR OVC006
     FM241100 11012KT 5SM -SN BR OVC008
     FM241400 11014KT 1 1/2SM -SN BR OVC008
     FM241700 09013KT 1 1/2SM -SN BR OVC003
     FM242000 05010KT 3/4SM -SN BR OVC003
     FM242300 01011KT 1 1/2SM -SN BR OVC008=

USA.gov is the U.S. government's official web portal to all federal, state and local government web resources and services.